sensor_id;sensor_type;location;lat;lon;timestamp;pressure;altitude;pressure_sealevel;temperature;humidity
13869;BME280;7004;48.206;16.402;2023-07-29T00:02:15;99267.16;;;24.79;56.83
13869;BME280;7004;48.206;16.402;2023-07-29T00:04:41;99266.81;;;24.54;57.23
13869;BME280;7004;48.206;16.402;2023-07-29T00:07:07;99258.38;;;24.71;56.68
13869;BME280;7004;48.206;16.402;2023-07-29T00:09:33;99263.41;;;24.17;58.29
13869;BME280;7004;48.206;16.402;2023-07-29T00:11:59;99271.69;;;24.72;56.21
13869;BME280;7004;48.206;16.402;2023-07-29T00:14:25;99277.56;;;24.48;57.82
13869;BME280;7004;48.206;16.402;2023-07-29T00:16:51;99279.13;;;24.63;57.61
13869;BME280;7004;48.206;16.402;2023-07-29T00:19:17;99273.00;;;24.48;57.69
13869;BME280;7004;48.206;16.402;2023-07-29T00:21:43;99269.91;;;24.93;57.00
13869;BME280;7004;48.206;16.402;2023-07-29T00:24:09;99272.53;;;24.73;57.26
13869;BME280;7004;48.206;16.402;2023-07-29T00:26:35;99268.63;;;24.82;57.12
13869;BME280;7004;48.206;16.402;2023-07-29T00:29:01;99265.38;;;24.58;57.70
13869;BME280;7004;48.206;16.402;2023-07-29T00:31:28;99265.84;;;24.40;58.56
13869;BME280;7004;48.206;16.402;2023-07-29T00:33:54;99264.72;;;24.56;58.83
13869;BME280;7004;48.206;16.402;2023-07-29T00:36:20;99267.06;;;24.31;58.71
13869;BME280;7004;48.206;16.402;2023-07-29T00:38:46;99264.25;;;24.18;59.50
13869;BME280;7004;48.206;16.402;2023-07-29T00:41:13;99259.81;;;24.38;58.67
13869;BME280;7004;48.206;16.402;2023-07-29T00:43:40;99256.41;;;24.23;59.13
13869;BME280;7004;48.206;16.402;2023-07-29T00:46:08;99250.41;;;24.28;59.68
13869;BME280;7004;48.206;16.402;2023-07-29T00:48:34;99250.97;;;24.45;59.36
13869;BME280;7004;48.206;16.402;2023-07-29T00:51:00;99248.19;;;24.38;59.07
13869;BME280;7004;48.206;16.402;2023-07-29T00:53:26;99256.03;;;24.54;58.11
13869;BME280;7004;48.206;16.402;2023-07-29T00:55:52;99254.97;;;24.55;58.17
13869;BME280;7004;48.206;16.402;2023-07-29T00:58:19;99253.44;;;24.46;58.83
13869;BME280;7004;48.206;16.402;2023-07-29T01:00:45;99253.56;;;24.59;58.31
13869;BME280;7004;48.206;16.402;2023-07-29T01:03:11;99251.47;;;24.33;58.72
13869;BME280;7004;48.206;16.402;2023-07-29T01:08:59;99253.25;;;24.19;59.85
13869;BME280;7004;48.206;16.402;2023-07-29T01:11:52;99248.34;;;24.30;59.67
13869;BME280;7004;48.206;16.402;2023-07-29T01:14:47;99252.56;;;24.39;58.78
13869;BME280;7004;48.206;16.402;2023-07-29T01:17:28;99243.75;;;24.30;58.52
13869;BME280;7004;48.206;16.402;2023-07-29T01:20:25;99252.25;;;24.27;59.86
13869;BME280;7004;48.206;16.402;2023-07-29T01:22:51;99250.69;;;24.39;59.18
13869;BME280;7004;48.206;16.402;2023-07-29T01:25:18;99243.97;;;24.29;59.74
13869;BME280;7004;48.206;16.402;2023-07-29T01:27:46;99247.34;;;24.37;59.06
13869;BME280;7004;48.206;16.402;2023-07-29T01:30:13;99243.84;;;24.43;58.83
13869;BME280;7004;48.206;16.402;2023-07-29T01:35:35;99253.78;;;24.36;59.39
13869;BME280;7004;48.206;16.402;2023-07-29T01:38:17;99263.06;;;24.27;60.06
13869;BME280;7004;48.206;16.402;2023-07-29T01:40:45;99260.22;;;24.07;59.85
13869;BME280;7004;48.206;16.402;2023-07-29T01:43:12;99252.31;;;24.34;59.37
13869;BME280;7004;48.206;16.402;2023-07-29T01:45:39;99255.78;;;23.99;60.14
13869;BME280;7004;48.206;16.402;2023-07-29T01:48:07;99261.16;;;24.21;59.63
13869;BME280;7004;48.206;16.402;2023-07-29T01:50:34;99248.69;;;24.20;60.23
13869;BME280;7004;48.206;16.402;2023-07-29T01:53:01;99242.69;;;24.25;59.61
13869;BME280;7004;48.206;16.402;2023-07-29T01:55:29;99246.03;;;23.98;60.73
13869;BME280;7004;48.206;16.402;2023-07-29T01:57:55;99239.13;;;23.89;60.98
13869;BME280;7004;48.206;16.402;2023-07-29T02:00:22;99241.03;;;24.24;59.80
13869;BME280;7004;48.206;16.402;2023-07-29T02:02:48;99241.06;;;24.02;60.11
13869;BME280;7004;48.206;16.402;2023-07-29T02:05:15;99240.00;;;23.96;60.53
13869;BME280;7004;48.206;16.402;2023-07-29T02:07:41;99240.59;;;23.92;61.14
13869;BME280;7004;48.206;16.402;2023-07-29T02:10:08;99231.31;;;24.01;60.44
13869;BME280;7004;48.206;16.402;2023-07-29T02:12:35;99229.78;;;24.20;59.23
13869;BME280;7004;48.206;16.402;2023-07-29T02:15:01;99230.09;;;24.04;59.32
13869;BME280;7004;48.206;16.402;2023-07-29T02:17:30;99230.28;;;24.02;58.75
13869;BME280;7004;48.206;16.402;2023-07-29T02:20:01;99231.50;;;23.99;58.21
13869;BME280;7004;48.206;16.402;2023-07-29T02:22:27;99229.91;;;23.84;58.58
13869;BME280;7004;48.206;16.402;2023-07-29T02:24:53;99235.78;;;24.15;57.75
13869;BME280;7004;48.206;16.402;2023-07-29T02:27:19;99239.50;;;23.86;57.78
13869;BME280;7004;48.206;16.402;2023-07-29T02:29:45;99231.13;;;24.03;56.76
13869;BME280;7004;48.206;16.402;2023-07-29T02:32:11;99232.13;;;23.73;57.55
13869;BME280;7004;48.206;16.402;2023-07-29T02:34:37;99233.59;;;23.97;56.31
13869;BME280;7004;48.206;16.402;2023-07-29T02:37:04;99242.00;;;23.88;56.09
13869;BME280;7004;48.206;16.402;2023-07-29T02:39:31;99247.75;;;24.06;56.00
13869;BME280;7004;48.206;16.402;2023-07-29T02:41:57;99256.94;;;24.12;56.66
13869;BME280;7004;48.206;16.402;2023-07-29T02:44:24;99255.06;;;24.12;56.89
13869;BME280;7004;48.206;16.402;2023-07-29T02:46:50;99251.53;;;24.12;55.76
13869;BME280;7004;48.206;16.402;2023-07-29T02:49:18;99258.91;;;24.25;55.63
13869;BME280;7004;48.206;16.402;2023-07-29T02:51:44;99253.09;;;23.99;55.61
13869;BME280;7004;48.206;16.402;2023-07-29T02:54:10;99244.75;;;24.23;55.39
13869;BME280;7004;48.206;16.402;2023-07-29T02:56:36;99258.81;;;24.11;55.61
13869;BME280;7004;48.206;16.402;2023-07-29T02:59:02;99251.16;;;23.87;54.95
13869;BME280;7004;48.206;16.402;2023-07-29T03:01:28;99250.34;;;23.71;54.21
13869;BME280;7004;48.206;16.402;2023-07-29T03:03:55;99252.28;;;23.56;54.03
13869;BME280;7004;48.206;16.402;2023-07-29T03:06:21;99249.47;;;23.86;53.31
13869;BME280;7004;48.206;16.402;2023-07-29T03:08:48;99242.25;;;23.71;53.44
13869;BME280;7004;48.206;16.402;2023-07-29T03:11:16;99253.53;;;23.75;53.32
13869;BME280;7004;48.206;16.402;2023-07-29T03:13:43;99248.81;;;23.62;53.17
13869;BME280;7004;48.206;16.402;2023-07-29T03:16:16;99254.97;;;23.56;53.23
13869;BME280;7004;48.206;16.402;2023-07-29T03:18:44;99256.41;;;23.73;52.53
13869;BME280;7004;48.206;16.402;2023-07-29T03:21:11;99257.22;;;23.52;53.23
13869;BME280;7004;48.206;16.402;2023-07-29T03:23:38;99259.97;;;23.74;52.72
13869;BME280;7004;48.206;16.402;2023-07-29T03:26:05;99256.59;;;23.72;52.58
13869;BME280;7004;48.206;16.402;2023-07-29T03:28:42;99250.59;;;23.98;51.63
13869;BME280;7004;48.206;16.402;2023-07-29T03:31:09;99248.50;;;23.72;52.53
13869;BME280;7004;48.206;16.402;2023-07-29T03:33:36;99256.66;;;23.79;52.55
13869;BME280;7004;48.206;16.402;2023-07-29T03:36:02;99252.84;;;23.51;53.08
13869;BME280;7004;48.206;16.402;2023-07-29T03:38:29;99268.13;;;23.66;52.85
13869;BME280;7004;48.206;16.402;2023-07-29T03:40:55;99267.00;;;23.75;52.51
13869;BME280;7004;48.206;16.402;2023-07-29T03:43:22;99268.34;;;23.64;53.02
13869;BME280;7004;48.206;16.402;2023-07-29T03:45:48;99273.34;;;23.67;53.15
13869;BME280;7004;48.206;16.402;2023-07-29T03:48:14;99276.69;;;23.69;53.41
13869;BME280;7004;48.206;16.402;2023-07-29T03:50:40;99274.06;;;23.76;53.26
13869;BME280;7004;48.206;16.402;2023-07-29T03:53:06;99274.66;;;23.93;52.86
13869;BME280;7004;48.206;16.402;2023-07-29T03:55:32;99276.03;;;23.67;53.71
13869;BME280;7004;48.206;16.402;2023-07-29T03:57:59;99288.06;;;23.65;54.12
13869;BME280;7004;48.206;16.402;2023-07-29T04:00:26;99280.88;;;23.93;53.04
13869;BME280;7004;48.206;16.402;2023-07-29T04:02:52;99286.94;;;23.74;53.88
13869;BME280;7004;48.206;16.402;2023-07-29T04:05:19;99283.47;;;23.80;53.01
13869;BME280;7004;48.206;16.402;2023-07-29T04:07:45;99284.00;;;23.97;53.30
13869;BME280;7004;48.206;16.402;2023-07-29T04:10:11;99288.81;;;24.02;53.32
13869;BME280;7004;48.206;16.402;2023-07-29T04:12:37;99282.06;;;24.12;52.37
13869;BME280;7004;48.206;16.402;2023-07-29T04:15:04;99294.06;;;23.82;53.96
13869;BME280;7004;48.206;16.402;2023-07-29T04:17:30;99297.13;;;23.79;53.38
13869;BME280;7004;48.206;16.402;2023-07-29T04:19:56;99298.34;;;23.76;53.64
13869;BME280;7004;48.206;16.402;2023-07-29T04:22:22;99302.53;;;23.79;53.68
13869;BME280;7004;48.206;16.402;2023-07-29T04:24:48;99306.78;;;23.88;53.53
13869;BME280;7004;48.206;16.402;2023-07-29T04:27:14;99308.72;;;23.72;54.30
13869;BME280;7004;48.206;16.402;2023-07-29T04:29:40;99313.41;;;23.70;55.30
13869;BME280;7004;48.206;16.402;2023-07-29T04:32:06;99321.16;;;23.73;54.64
13869;BME280;7004;48.206;16.402;2023-07-29T04:34:33;99317.91;;;23.63;55.98
13869;BME280;7004;48.206;16.402;2023-07-29T04:36:59;99320.84;;;23.47;55.65
13869;BME280;7004;48.206;16.402;2023-07-29T04:39:25;99325.16;;;23.77;55.44
13869;BME280;7004;48.206;16.402;2023-07-29T04:41:51;99323.69;;;23.75;54.98
13869;BME280;7004;48.206;16.402;2023-07-29T04:44:17;99330.28;;;23.21;56.51
13869;BME280;7004;48.206;16.402;2023-07-29T04:46:43;99325.78;;;23.58;55.65
13869;BME280;7004;48.206;16.402;2023-07-29T04:49:09;99329.50;;;23.79;54.76
13869;BME280;7004;48.206;16.402;2023-07-29T04:51:36;99331.03;;;23.66;55.71
13869;BME280;7004;48.206;16.402;2023-07-29T04:54:03;99329.31;;;23.44;55.89
13869;BME280;7004;48.206;16.402;2023-07-29T04:56:29;99325.91;;;23.71;55.49
13869;BME280;7004;48.206;16.402;2023-07-29T04:58:55;99329.72;;;23.62;55.84
13869;BME280;7004;48.206;16.402;2023-07-29T05:01:21;99339.47;;;23.27;56.93
13869;BME280;7004;48.206;16.402;2023-07-29T05:03:47;99333.00;;;23.21;57.04
13869;BME280;7004;48.206;16.402;2023-07-29T05:06:13;99333.00;;;23.58;55.58
13869;BME280;7004;48.206;16.402;2023-07-29T05:08:39;99338.50;;;23.49;55.95
13869;BME280;7004;48.206;16.402;2023-07-29T05:11:05;99335.00;;;23.70;55.14
13869;BME280;7004;48.206;16.402;2023-07-29T05:13:31;99335.78;;;23.79;54.78
13869;BME280;7004;48.206;16.402;2023-07-29T05:15:57;99338.38;;;23.72;54.98
13869;BME280;7004;48.206;16.402;2023-07-29T05:18:23;99334.00;;;23.71;54.98
13869;BME280;7004;48.206;16.402;2023-07-29T05:20:50;99330.38;;;23.64;55.17
13869;BME280;7004;48.206;16.402;2023-07-29T05:23:16;99334.19;;;23.70;54.92
13869;BME280;7004;48.206;16.402;2023-07-29T05:25:42;99324.63;;;23.89;54.75
13869;BME280;7004;48.206;16.402;2023-07-29T05:28:08;99334.56;;;23.67;55.04
13869;BME280;7004;48.206;16.402;2023-07-29T05:30:34;99337.78;;;23.55;55.51
13869;BME280;7004;48.206;16.402;2023-07-29T05:33:04;99330.69;;;23.91;54.87
13869;BME280;7004;48.206;16.402;2023-07-29T05:35:30;99340.47;;;23.92;56.45
13869;BME280;7004;48.206;16.402;2023-07-29T05:37:56;99342.13;;;23.93;55.40
13869;BME280;7004;48.206;16.402;2023-07-29T05:40:22;99343.03;;;24.00;54.10
13869;BME280;7004;48.206;16.402;2023-07-29T05:42:48;99339.50;;;24.28;53.32
13869;BME280;7004;48.206;16.402;2023-07-29T05:45:14;99343.31;;;24.55;53.92
13869;BME280;7004;48.206;16.402;2023-07-29T05:47:41;99334.13;;;24.28;53.28
13869;BME280;7004;48.206;16.402;2023-07-29T05:50:08;99339.19;;;24.37;54.67
13869;BME280;7004;48.206;16.402;2023-07-29T05:52:34;99345.81;;;24.35;53.27
13869;BME280;7004;48.206;16.402;2023-07-29T05:55:00;99335.81;;;24.29;53.51
13869;BME280;7004;48.206;16.402;2023-07-29T05:57:28;99350.03;;;24.66;52.44
13869;BME280;7004;48.206;16.402;2023-07-29T05:59:54;99350.53;;;24.05;55.46
13869;BME280;7004;48.206;16.402;2023-07-29T06:02:20;99349.28;;;24.50;53.73
13869;BME280;7004;48.206;16.402;2023-07-29T06:04:46;99342.22;;;24.28;54.16
13869;BME280;7004;48.206;16.402;2023-07-29T06:07:12;99343.31;;;24.55;53.36
13869;BME280;7004;48.206;16.402;2023-07-29T06:09:39;99339.16;;;24.59;53.75
13869;BME280;7004;48.206;16.402;2023-07-29T06:12:06;99351.41;;;24.83;53.60
13869;BME280;7004;48.206;16.402;2023-07-29T06:14:33;99345.88;;;24.41;53.49
13869;BME280;7004;48.206;16.402;2023-07-29T06:16:59;99347.91;;;24.61;53.50
13869;BME280;7004;48.206;16.402;2023-07-29T06:19:25;99355.84;;;24.69;53.84
13869;BME280;7004;48.206;16.402;2023-07-29T06:21:51;99350.91;;;24.73;54.18
13869;BME280;7004;48.206;16.402;2023-07-29T06:24:17;99355.72;;;24.49;54.17
13869;BME280;7004;48.206;16.402;2023-07-29T06:26:43;99356.16;;;24.53;54.11
13869;BME280;7004;48.206;16.402;2023-07-29T06:29:11;99352.66;;;24.87;53.65
13869;BME280;7004;48.206;16.402;2023-07-29T06:31:37;99357.06;;;24.60;53.53
13869;BME280;7004;48.206;16.402;2023-07-29T06:34:03;99347.72;;;24.62;54.34
13869;BME280;7004;48.206;16.402;2023-07-29T06:36:28;99351.78;;;24.30;55.42
13869;BME280;7004;48.206;16.402;2023-07-29T06:38:55;99347.88;;;24.33;54.63
13869;BME280;7004;48.206;16.402;2023-07-29T06:41:21;99348.84;;;24.47;53.72
13869;BME280;7004;48.206;16.402;2023-07-29T06:43:47;99349.97;;;24.59;53.96
13869;BME280;7004;48.206;16.402;2023-07-29T06:46:13;99342.88;;;24.86;53.45
13869;BME280;7004;48.206;16.402;2023-07-29T06:48:39;99343.94;;;24.92;54.76
13869;BME280;7004;48.206;16.402;2023-07-29T06:51:05;99346.25;;;24.95;54.31
13869;BME280;7004;48.206;16.402;2023-07-29T06:53:31;99345.75;;;24.78;52.98
13869;BME280;7004;48.206;16.402;2023-07-29T06:55:57;99351.47;;;25.03;52.73
13869;BME280;7004;48.206;16.402;2023-07-29T06:58:24;99343.00;;;25.06;52.90
13869;BME280;7004;48.206;16.402;2023-07-29T07:00:50;99335.94;;;25.53;51.46
13869;BME280;7004;48.206;16.402;2023-07-29T07:03:16;99341.31;;;25.46;51.24
13869;BME280;7004;48.206;16.402;2023-07-29T07:05:42;99338.75;;;25.25;52.60
13869;BME280;7004;48.206;16.402;2023-07-29T07:08:08;99343.66;;;25.69;51.58
13869;BME280;7004;48.206;16.402;2023-07-29T07:10:34;99338.66;;;25.12;52.64
13869;BME280;7004;48.206;16.402;2023-07-29T07:13:01;99337.78;;;25.04;53.20
13869;BME280;7004;48.206;16.402;2023-07-29T07:15:26;99337.34;;;25.01;52.35
13869;BME280;7004;48.206;16.402;2023-07-29T07:17:53;99334.41;;;24.96;52.86
13869;BME280;7004;48.206;16.402;2023-07-29T07:20:19;99331.13;;;25.55;51.95
13869;BME280;7004;48.206;16.402;2023-07-29T07:22:45;99334.28;;;25.59;52.05
13869;BME280;7004;48.206;16.402;2023-07-29T07:25:11;99322.38;;;25.05;52.82
13869;BME280;7004;48.206;16.402;2023-07-29T07:27:37;99317.00;;;25.53;52.08
13869;BME280;7004;48.206;16.402;2023-07-29T07:30:04;99317.94;;;25.25;52.31
13869;BME280;7004;48.206;16.402;2023-07-29T07:32:30;99327.09;;;25.31;52.14
13869;BME280;7004;48.206;16.402;2023-07-29T07:34:56;99320.22;;;25.90;50.93
13869;BME280;7004;48.206;16.402;2023-07-29T07:37:22;99324.31;;;25.79;50.96
13869;BME280;7004;48.206;16.402;2023-07-29T07:39:48;99322.09;;;25.89;50.51
13869;BME280;7004;48.206;16.402;2023-07-29T07:42:14;99330.81;;;26.78;48.06
13869;BME280;7004;48.206;16.402;2023-07-29T07:44:40;99308.28;;;27.42;47.11
13869;BME280;7004;48.206;16.402;2023-07-29T07:47:06;99312.72;;;27.30;46.53
13869;BME280;7004;48.206;16.402;2023-07-29T07:49:32;99312.72;;;28.07;45.78
13869;BME280;7004;48.206;16.402;2023-07-29T07:51:58;99313.28;;;28.09;44.28
13869;BME280;7004;48.206;16.402;2023-07-29T07:54:24;99306.81;;;28.79;43.91
13869;BME280;7004;48.206;16.402;2023-07-29T07:56:50;99307.41;;;28.37;43.54
13869;BME280;7004;48.206;16.402;2023-07-29T07:59:16;99313.34;;;29.14;41.48
13869;BME280;7004;48.206;16.402;2023-07-29T08:01:42;99305.63;;;28.93;42.36
13869;BME280;7004;48.206;16.402;2023-07-29T08:04:08;99311.41;;;29.33;41.08
13869;BME280;7004;48.206;16.402;2023-07-29T08:06:34;99309.13;;;29.18;41.35
13869;BME280;7004;48.206;16.402;2023-07-29T08:09:01;99317.47;;;28.99;41.49
13869;BME280;7004;48.206;16.402;2023-07-29T08:11:27;99307.59;;;29.23;40.73
13869;BME280;7004;48.206;16.402;2023-07-29T08:13:53;99300.50;;;29.22;40.56
13869;BME280;7004;48.206;16.402;2023-07-29T08:16:19;99299.72;;;28.96;40.87
13869;BME280;7004;48.206;16.402;2023-07-29T08:18:45;99295.88;;;29.22;41.18
13869;BME280;7004;48.206;16.402;2023-07-29T08:21:13;99297.09;;;29.87;39.26
13869;BME280;7004;48.206;16.402;2023-07-29T08:23:39;99292.41;;;29.75;39.08
13869;BME280;7004;48.206;16.402;2023-07-29T08:26:06;99296.88;;;30.00;39.13
13869;BME280;7004;48.206;16.402;2023-07-29T08:28:38;99299.03;;;29.37;39.84
13869;BME280;7004;48.206;16.402;2023-07-29T08:31:04;99294.91;;;29.47;39.41
13869;BME280;7004;48.206;16.402;2023-07-29T08:33:31;99286.47;;;29.67;38.53
13869;BME280;7004;48.206;16.402;2023-07-29T08:35:59;99293.16;;;29.82;38.36
13869;BME280;7004;48.206;16.402;2023-07-29T08:38:25;99291.09;;;30.20;38.32
13869;BME280;7004;48.206;16.402;2023-07-29T08:41:14;99285.78;;;30.72;37.43
13869;BME280;7004;48.206;16.402;2023-07-29T08:43:52;99282.00;;;30.61;37.09
13869;BME280;7004;48.206;16.402;2023-07-29T08:46:22;99283.34;;;29.81;37.87
13869;BME280;7004;48.206;16.402;2023-07-29T08:48:49;99282.56;;;30.75;36.68
13869;BME280;7004;48.206;16.402;2023-07-29T08:51:15;99277.63;;;30.25;36.70
13869;BME280;7004;48.206;16.402;2023-07-29T08:53:43;99276.31;;;30.28;36.93
13869;BME280;7004;48.206;16.402;2023-07-29T08:56:09;99268.25;;;30.44;36.50
13869;BME280;7004;48.206;16.402;2023-07-29T08:58:36;99271.44;;;30.65;35.70
13869;BME280;7004;48.206;16.402;2023-07-29T09:01:03;99271.78;;;30.45;36.64
13869;BME280;7004;48.206;16.402;2023-07-29T09:03:29;99263.88;;;30.43;36.72
13869;BME280;7004;48.206;16.402;2023-07-29T09:05:56;99265.25;;;30.81;35.28
13869;BME280;7004;48.206;16.402;2023-07-29T09:08:23;99267.06;;;30.64;36.42
13869;BME280;7004;48.206;16.402;2023-07-29T09:10:50;99258.22;;;30.97;36.10
13869;BME280;7004;48.206;16.402;2023-07-29T09:13:16;99260.19;;;30.61;36.96
13869;BME280;7004;48.206;16.402;2023-07-29T09:15:42;99262.16;;;30.66;37.02
13869;BME280;7004;48.206;16.402;2023-07-29T09:18:17;99249.59;;;30.65;36.72
13869;BME280;7004;48.206;16.402;2023-07-29T09:20:47;99242.16;;;31.41;36.20
13869;BME280;7004;48.206;16.402;2023-07-29T09:23:13;99245.13;;;31.68;35.91
13869;BME280;7004;48.206;16.402;2023-07-29T09:25:40;99248.16;;;31.26;35.18
13869;BME280;7004;48.206;16.402;2023-07-29T09:28:14;99245.03;;;31.06;35.46
13869;BME280;7004;48.206;16.402;2023-07-29T09:30:46;99251.09;;;30.96;36.18
13869;BME280;7004;48.206;16.402;2023-07-29T09:33:13;99244.75;;;30.67;35.92
13869;BME280;7004;48.206;16.402;2023-07-29T09:35:39;99233.16;;;31.41;35.10
13869;BME280;7004;48.206;16.402;2023-07-29T09:38:06;99233.19;;;32.25;34.09
13869;BME280;7004;48.206;16.402;2023-07-29T09:40:40;99225.06;;;32.91;33.24
13869;BME280;7004;48.206;16.402;2023-07-29T09:43:09;99232.84;;;32.38;34.42
13869;BME280;7004;48.206;16.402;2023-07-29T09:45:37;99229.75;;;32.35;33.79
13869;BME280;7004;48.206;16.402;2023-07-29T09:48:05;99228.19;;;31.54;33.92
13869;BME280;7004;48.206;16.402;2023-07-29T09:50:35;99219.03;;;32.11;33.60
13869;BME280;7004;48.206;16.402;2023-07-29T09:53:02;99213.66;;;31.66;34.14
13869;BME280;7004;48.206;16.402;2023-07-29T09:55:32;99221.75;;;32.28;32.73
13869;BME280;7004;48.206;16.402;2023-07-29T09:58:00;99218.84;;;31.67;33.68
13869;BME280;7004;48.206;16.402;2023-07-29T10:00:29;99211.56;;;31.90;34.30
13869;BME280;7004;48.206;16.402;2023-07-29T10:02:56;99215.72;;;31.01;34.58
13869;BME280;7004;48.206;16.402;2023-07-29T10:05:25;99200.13;;;33.64;31.67
13869;BME280;7004;48.206;16.402;2023-07-29T10:07:52;99203.06;;;32.59;33.10
13869;BME280;7004;48.206;16.402;2023-07-29T10:10:20;99209.50;;;32.14;33.69
13869;BME280;7004;48.206;16.402;2023-07-29T10:12:47;99202.03;;;33.09;32.37
13869;BME280;7004;48.206;16.402;2023-07-29T10:15:13;99202.00;;;33.31;31.31
13869;BME280;7004;48.206;16.402;2023-07-29T10:17:40;99194.72;;;32.49;32.81
13869;BME280;7004;48.206;16.402;2023-07-29T10:20:09;99195.06;;;31.96;32.40
13869;BME280;7004;48.206;16.402;2023-07-29T10:22:41;99201.78;;;33.11;31.18
13869;BME280;7004;48.206;16.402;2023-07-29T10:25:22;99187.91;;;32.73;31.72
13869;BME280;7004;48.206;16.402;2023-07-29T10:28:00;99185.38;;;33.43;31.26
13869;BME280;7004;48.206;16.402;2023-07-29T10:30:31;99188.03;;;33.05;31.01
13869;BME280;7004;48.206;16.402;2023-07-29T10:33:01;99191.06;;;33.36;31.39
13869;BME280;7004;48.206;16.402;2023-07-29T10:35:27;99190.91;;;32.50;32.00
13869;BME280;7004;48.206;16.402;2023-07-29T10:37:54;99194.00;;;33.02;31.27
13869;BME280;7004;48.206;16.402;2023-07-29T10:40:20;99197.94;;;34.03;31.07
13869;BME280;7004;48.206;16.402;2023-07-29T10:43:11;99201.91;;;34.18;29.52
13869;BME280;7004;48.206;16.402;2023-07-29T10:45:39;99200.00;;;34.71;28.35
13869;BME280;7004;48.206;16.402;2023-07-29T10:48:39;99199.63;;;33.72;28.86
13869;BME280;7004;48.206;16.402;2023-07-29T10:51:27;99186.22;;;34.61;28.05
13869;BME280;7004;48.206;16.402;2023-07-29T10:54:13;99189.69;;;33.98;27.81
13869;BME280;7004;48.206;16.402;2023-07-29T10:56:49;99175.38;;;34.91;26.85
13869;BME280;7004;48.206;16.402;2023-07-29T11:02:00;99164.31;;;33.76;28.22
13869;BME280;7004;48.206;16.402;2023-07-29T11:04:28;99165.50;;;34.90;27.15
13869;BME280;7004;48.206;16.402;2023-07-29T11:09:42;99150.03;;;34.11;28.34
13869;BME280;7004;48.206;16.402;2023-07-29T11:18:04;99133.16;;;35.28;28.31
13869;BME280;7004;48.206;16.402;2023-07-29T11:20:34;99129.88;;;35.41;26.52
13869;BME280;7004;48.206;16.402;2023-07-29T11:23:02;99141.06;;;34.26;28.32
13869;BME280;7004;48.206;16.402;2023-07-29T11:25:30;99134.34;;;33.64;28.12
13869;BME280;7004;48.206;16.402;2023-07-29T11:27:59;99117.94;;;33.04;29.55
13869;BME280;7004;48.206;16.402;2023-07-29T11:30:26;99116.00;;;32.78;30.58
13869;BME280;7004;48.206;16.402;2023-07-29T11:32:54;99125.53;;;32.31;30.23
13869;BME280;7004;48.206;16.402;2023-07-29T11:35:21;99121.41;;;32.07;31.19
13869;BME280;7004;48.206;16.402;2023-07-29T11:37:50;99118.25;;;31.98;30.44
13869;BME280;7004;48.206;16.402;2023-07-29T11:40:20;99128.25;;;32.48;30.97
13869;BME280;7004;48.206;16.402;2023-07-29T11:42:47;99128.44;;;33.45;29.62
13869;BME280;7004;48.206;16.402;2023-07-29T11:45:15;99118.31;;;33.13;29.63
13869;BME280;7004;48.206;16.402;2023-07-29T11:47:41;99120.47;;;32.62;30.51
13869;BME280;7004;48.206;16.402;2023-07-29T11:50:11;99127.22;;;32.54;30.96
13869;BME280;7004;48.206;16.402;2023-07-29T11:52:44;99116.38;;;32.42;31.10
13869;BME280;7004;48.206;16.402;2023-07-29T11:55:13;99112.06;;;32.69;30.76
13869;BME280;7004;48.206;16.402;2023-07-29T11:57:41;99114.19;;;32.89;30.75
13869;BME280;7004;48.206;16.402;2023-07-29T12:00:10;99109.78;;;33.42;29.39
13869;BME280;7004;48.206;16.402;2023-07-29T12:02:42;99108.75;;;32.94;29.21
13869;BME280;7004;48.206;16.402;2023-07-29T12:05:13;99125.94;;;32.62;30.00
13869;BME280;7004;48.206;16.402;2023-07-29T12:07:42;99114.16;;;32.39;29.95
13869;BME280;7004;48.206;16.402;2023-07-29T12:10:10;99111.38;;;32.12;30.48
13869;BME280;7004;48.206;16.402;2023-07-29T12:12:50;99110.63;;;31.83;30.07
13869;BME280;7004;48.206;16.402;2023-07-29T12:15:27;99104.88;;;32.40;29.59
13869;BME280;7004;48.206;16.402;2023-07-29T12:17:58;99100.09;;;33.29;28.83
13869;BME280;7004;48.206;16.402;2023-07-29T12:20:26;99098.34;;;33.50;27.81
13869;BME280;7004;48.206;16.402;2023-07-29T12:22:58;99095.13;;;34.06;27.34
13869;BME280;7004;48.206;16.402;2023-07-29T12:25:27;99090.31;;;32.84;29.15
13869;BME280;7004;48.206;16.402;2023-07-29T12:27:55;99099.66;;;32.39;29.65
13869;BME280;7004;48.206;16.402;2023-07-29T12:30:22;99106.28;;;32.43;30.42
13869;BME280;7004;48.206;16.402;2023-07-29T12:32:48;99103.78;;;31.97;30.77
13869;BME280;7004;48.206;16.402;2023-07-29T12:35:15;99102.25;;;33.27;29.37
13869;BME280;7004;48.206;16.402;2023-07-29T12:37:41;99108.66;;;34.18;28.97
13869;BME280;7004;48.206;16.402;2023-07-29T12:40:23;99107.97;;;33.95;28.09
13869;BME280;7004;48.206;16.402;2023-07-29T12:42:50;99098.13;;;33.57;28.82
13869;BME280;7004;48.206;16.402;2023-07-29T12:45:17;99116.41;;;33.51;30.08
13869;BME280;7004;48.206;16.402;2023-07-29T12:47:44;99112.47;;;34.17;29.13
13869;BME280;7004;48.206;16.402;2023-07-29T12:50:10;99109.81;;;33.47;29.21
13869;BME280;7004;48.206;16.402;2023-07-29T12:52:37;99117.19;;;33.46;30.09
13869;BME280;7004;48.206;16.402;2023-07-29T12:55:04;99099.16;;;32.91;30.35
13869;BME280;7004;48.206;16.402;2023-07-29T12:57:30;99102.38;;;32.61;30.84
13869;BME280;7004;48.206;16.402;2023-07-29T12:59:56;99107.41;;;32.47;30.48
13869;BME280;7004;48.206;16.402;2023-07-29T13:02:22;99089.91;;;32.97;29.78
13869;BME280;7004;48.206;16.402;2023-07-29T13:04:48;99089.69;;;33.63;29.67
13869;BME280;7004;48.206;16.402;2023-07-29T13:07:14;99098.59;;;32.89;31.02
13869;BME280;7004;48.206;16.402;2023-07-29T13:09:40;99088.97;;;33.09;29.88
13869;BME280;7004;48.206;16.402;2023-07-29T13:12:07;99098.00;;;33.46;30.13
13869;BME280;7004;48.206;16.402;2023-07-29T13:14:33;99087.63;;;34.33;29.34
13869;BME280;7004;48.206;16.402;2023-07-29T13:16:59;99097.00;;;32.93;29.34
13869;BME280;7004;48.206;16.402;2023-07-29T13:19:25;99101.53;;;32.82;28.37
13869;BME280;7004;48.206;16.402;2023-07-29T13:21:51;99099.47;;;31.85;29.07